sensor_id;sensor_type;location;lat;lon;timestamp;P1;durP1;ratioP1;P2;durP2;ratioP2
46717;SDS011;32448;44.960;-0.698;2024-03-06T00:00:12;65.80;;;22.08;;
46717;SDS011;32448;44.960;-0.698;2024-03-06T00:02:40;84.68;;;26.13;;
46717;SDS011;32448;44.960;-0.698;2024-03-06T00:05:07;58.30;;;17.63;;
46717;SDS011;32448;44.960;-0.698;2024-03-06T00:07:35;49.83;;;14.32;;
46717;SDS011;32448;44.960;-0.698;2024-03-06T00:10:02;25.13;;;8.27;;
46717;SDS011;32448;44.960;-0.698;2024-03-06T00:12:31;29.45;;;10.35;;
46717;SDS011;32448;44.960;-0.698;2024-03-06T00:14:58;49.22;;;16.40;;
46717;SDS011;32448;44.960;-0.698;2024-03-06T00:17:25;67.10;;;23.35;;
46717;SDS011;32448;44.960;-0.698;2024-03-06T00:19:53;64.18;;;22.25;;
46717;SDS011;32448;44.960;-0.698;2024-03-06T00:22:20;49.08;;;17.58;;
46717;SDS011;32448;44.960;-0.698;2024-03-06T00:24:49;39.80;;;13.88;;
46717;SDS011;32448;44.960;-0.698;2024-03-06T00:27:17;31.25;;;11.93;;
46717;SDS011;32448;44.960;-0.698;2024-03-06T00:29:44;49.15;;;16.20;;
46717;SDS011;32448;44.960;-0.698;2024-03-06T00:32:11;28.50;;;10.23;;
46717;SDS011;32448;44.960;-0.698;2024-03-06T00:34:39;12.15;;;3.65;;
46717;SDS011;32448;44.960;-0.698;2024-03-06T00:37:06;5.72;;;2.15;;
46717;SDS011;32448;44.960;-0.698;2024-03-06T00:39:32;11.73;;;2.90;;
46717;SDS011;32448;44.960;-0.698;2024-03-06T00:41:59;6.78;;;2.60;;
46717;SDS011;32448;44.960;-0.698;2024-03-06T00:44:26;4.57;;;1.27;;
46717;SDS011;32448;44.960;-0.698;2024-03-06T00:46:53;2.83;;;0.85;;
46717;SDS011;32448;44.960;-0.698;2024-03-06T00:49:20;20.55;;;6.75;;
46717;SDS011;32448;44.960;-0.698;2024-03-06T00:51:47;28.10;;;9.25;;
46717;SDS011;32448;44.960;-0.698;2024-03-06T00:54:15;13.77;;;5.22;;
46717;SDS011;32448;44.960;-0.698;2024-03-06T00:56:43;5.50;;;1.83;;
46717;SDS011;32448;44.960;-0.698;2024-03-06T00:59:10;5.43;;;1.30;;
46717;SDS011;32448;44.960;-0.698;2024-03-06T01:01:37;5.65;;;1.85;;
46717;SDS011;32448;44.960;-0.698;2024-03-06T01:04:04;8.13;;;2.47;;
46717;SDS011;32448;44.960;-0.698;2024-03-06T01:06:31;6.05;;;2.00;;
46717;SDS011;32448;44.960;-0.698;2024-03-06T01:08:58;3.75;;;1.25;;
46717;SDS011;32448;44.960;-0.698;2024-03-06T01:11:26;4.55;;;1.10;;
46717;SDS011;32448;44.960;-0.698;2024-03-06T01:13:53;4.45;;;1.15;;
46717;SDS011;32448;44.960;-0.698;2024-03-06T01:16:22;4.93;;;1.50;;
46717;SDS011;32448;44.960;-0.698;2024-03-06T01:18:56;2.97;;;0.65;;
46717;SDS011;32448;44.960;-0.698;2024-03-06T01:21:23;1.45;;;0.60;;
46717;SDS011;32448;44.960;-0.698;2024-03-06T01:23:50;2.72;;;0.70;;
46717;SDS011;32448;44.960;-0.698;2024-03-06T01:26:17;4.05;;;1.10;;
46717;SDS011;32448;44.960;-0.698;2024-03-06T01:28:45;21.05;;;7.80;;
46717;SDS011;32448;44.960;-0.698;2024-03-06T01:31:12;34.95;;;12.32;;
46717;SDS011;32448;44.960;-0.698;2024-03-06T01:33:39;14.02;;;4.95;;
46717;SDS011;32448;44.960;-0.698;2024-03-06T01:36:06;6.10;;;1.65;;
46717;SDS011;32448;44.960;-0.698;2024-03-06T01:38:33;19.40;;;7.38;;
46717;SDS011;32448;44.960;-0.698;2024-03-06T01:40:59;13.95;;;5.18;;
46717;SDS011;32448;44.960;-0.698;2024-03-06T01:43:26;22.80;;;7.65;;
46717;SDS011;32448;44.960;-0.698;2024-03-06T01:45:53;22.13;;;7.03;;
46717;SDS011;32448;44.960;-0.698;2024-03-06T01:48:26;26.45;;;8.38;;
46717;SDS011;32448;44.960;-0.698;2024-03-06T01:50:55;20.35;;;7.75;;
46717;SDS011;32448;44.960;-0.698;2024-03-06T01:53:23;38.40;;;15.70;;
46717;SDS011;32448;44.960;-0.698;2024-03-06T01:55:53;36.13;;;15.90;;
46717;SDS011;32448;44.960;-0.698;2024-03-06T01:58:21;19.88;;;7.93;;
46717;SDS011;32448;44.960;-0.698;2024-03-06T02:00:49;9.25;;;3.35;;
46717;SDS011;32448;44.960;-0.698;2024-03-06T02:03:17;4.78;;;2.55;;
46717;SDS011;32448;44.960;-0.698;2024-03-06T02:05:47;12.02;;;5.78;;
46717;SDS011;32448;44.960;-0.698;2024-03-06T02:08:15;14.88;;;6.88;;
46717;SDS011;32448;44.960;-0.698;2024-03-06T02:10:44;11.07;;;5.15;;
46717;SDS011;32448;44.960;-0.698;2024-03-06T02:13:15;6.97;;;3.60;;
46717;SDS011;32448;44.960;-0.698;2024-03-06T02:15:44;6.38;;;2.40;;
46717;SDS011;32448;44.960;-0.698;2024-03-06T02:18:11;4.60;;;1.88;;
46717;SDS011;32448;44.960;-0.698;2024-03-06T02:20:38;3.17;;;1.10;;
46717;SDS011;32448;44.960;-0.698;2024-03-06T02:23:08;3.40;;;1.33;;
46717;SDS011;32448;44.960;-0.698;2024-03-06T02:25:35;3.15;;;1.00;;
46717;SDS011;32448;44.960;-0.698;2024-03-06T02:28:02;1.05;;;0.60;;
46717;SDS011;32448;44.960;-0.698;2024-03-06T02:30:30;1.88;;;0.70;;
46717;SDS011;32448;44.960;-0.698;2024-03-06T02:33:03;2.83;;;1.13;;
46717;SDS011;32448;44.960;-0.698;2024-03-06T02:35:33;4.30;;;2.17;;
46717;SDS011;32448;44.960;-0.698;2024-03-06T02:38:02;6.68;;;3.47;;
46717;SDS011;32448;44.960;-0.698;2024-03-06T02:40:33;11.13;;;5.38;;
46717;SDS011;32448;44.960;-0.698;2024-03-06T02:43:01;7.35;;;4.13;;
46717;SDS011;32448;44.960;-0.698;2024-03-06T02:45:28;4.53;;;2.30;;
46717;SDS011;32448;44.960;-0.698;2024-03-06T02:47:55;3.33;;;1.38;;
46717;SDS011;32448;44.960;-0.698;2024-03-06T02:50:22;7.13;;;3.47;;
46717;SDS011;32448;44.960;-0.698;2024-03-06T02:52:50;12.80;;;6.28;;
46717;SDS011;32448;44.960;-0.698;2024-03-06T02:55:18;8.15;;;4.75;;
46717;SDS011;32448;44.960;-0.698;2024-03-06T02:57:45;6.55;;;3.05;;
46717;SDS011;32448;44.960;-0.698;2024-03-06T03:00:12;3.13;;;1.27;;
46717;SDS011;32448;44.960;-0.698;2024-03-06T03:02:40;3.42;;;1.10;;
46717;SDS011;32448;44.960;-0.698;2024-03-06T03:05:07;1.95;;;1.13;;
46717;SDS011;32448;44.960;-0.698;2024-03-06T03:07:35;2.20;;;1.02;;
46717;SDS011;32448;44.960;-0.698;2024-03-06T03:10:02;3.08;;;0.75;;
46717;SDS011;32448;44.960;-0.698;2024-03-06T03:12:31;0.88;;;0.50;;
46717;SDS011;32448;44.960;-0.698;2024-03-06T03:14:58;1.05;;;0.60;;
46717;SDS011;32448;44.960;-0.698;2024-03-06T03:17:24;1.65;;;0.70;;
46717;SDS011;32448;44.960;-0.698;2024-03-06T03:19:51;3.53;;;1.42;;
46717;SDS011;32448;44.960;-0.698;2024-03-06T03:22:19;2.78;;;0.70;;
46717;SDS011;32448;44.960;-0.698;2024-03-06T03:24:45;2.47;;;0.60;;
46717;SDS011;32448;44.960;-0.698;2024-03-06T03:27:13;0.95;;;0.57;;
46717;SDS011;32448;44.960;-0.698;2024-03-06T03:29:40;1.63;;;0.60;;
46717;SDS011;32448;44.960;-0.698;2024-03-06T03:32:07;1.67;;;0.60;;
46717;SDS011;32448;44.960;-0.698;2024-03-06T03:34:34;2.00;;;0.70;;
46717;SDS011;32448;44.960;-0.698;2024-03-06T03:37:02;1.92;;;0.77;;
46717;SDS011;32448;44.960;-0.698;2024-03-06T03:39:29;1.77;;;0.75;;
46717;SDS011;32448;44.960;-0.698;2024-03-06T03:41:56;2.17;;;0.60;;
46717;SDS011;32448;44.960;-0.698;2024-03-06T03:44:23;0.55;;;0.40;;
46717;SDS011;32448;44.960;-0.698;2024-03-06T03:46:50;0.57;;;0.40;;
46717;SDS011;32448;44.960;-0.698;2024-03-06T03:49:17;1.20;;;0.50;;
46717;SDS011;32448;44.960;-0.698;2024-03-06T03:51:44;1.50;;;0.82;;
46717;SDS011;32448;44.960;-0.698;2024-03-06T03:54:12;1.00;;;0.60;;
46717;SDS011;32448;44.960;-0.698;2024-03-06T03:56:39;1.80;;;0.70;;
46717;SDS011;32448;44.960;-0.698;2024-03-06T03:59:06;1.88;;;0.70;;
46717;SDS011;32448;44.960;-0.698;2024-03-06T04:01:32;0.70;;;0.50;;
46717;SDS011;32448;44.960;-0.698;2024-03-06T04:04:00;0.85;;;0.60;;
46717;SDS011;32448;44.960;-0.698;2024-03-06T04:06:26;0.98;;;0.40;;
46717;SDS011;32448;44.960;-0.698;2024-03-06T04:08:59;3.45;;;0.50;;
46717;SDS011;32448;44.960;-0.698;2024-03-06T04:11:27;4.13;;;0.50;;
46717;SDS011;32448;44.960;-0.698;2024-03-06T04:13:53;1.55;;;0.50;;
46717;SDS011;32448;44.960;-0.698;2024-03-06T04:16:20;1.25;;;0.63;;
46717;SDS011;32448;44.960;-0.698;2024-03-06T04:18:47;1.08;;;0.60;;
46717;SDS011;32448;44.960;-0.698;2024-03-06T04:21:14;0.85;;;0.63;;
46717;SDS011;32448;44.960;-0.698;2024-03-06T04:23:43;1.25;;;0.60;;
46717;SDS011;32448;44.960;-0.698;2024-03-06T04:26:10;3.17;;;0.75;;
46717;SDS011;32448;44.960;-0.698;2024-03-06T04:28:38;0.80;;;0.57;;
46717;SDS011;32448;44.960;-0.698;2024-03-06T04:31:05;3.40;;;0.52;;
46717;SDS011;32448;44.960;-0.698;2024-03-06T04:33:32;3.35;;;0.60;;
46717;SDS011;32448;44.960;-0.698;2024-03-06T04:36:00;1.15;;;0.60;;
46717;SDS011;32448;44.960;-0.698;2024-03-06T04:38:29;0.90;;;0.60;;
46717;SDS011;32448;44.960;-0.698;2024-03-06T04:40:56;1.08;;;0.65;;
46717;SDS011;32448;44.960;-0.698;2024-03-06T04:43:23;2.25;;;0.73;;
46717;SDS011;32448;44.960;-0.698;2024-03-06T04:45:50;2.50;;;0.90;;
46717;SDS011;32448;44.960;-0.698;2024-03-06T04:48:17;1.73;;;0.77;;
46717;SDS011;32448;44.960;-0.698;2024-03-06T04:50:45;1.88;;;0.70;;
46717;SDS011;32448;44.960;-0.698;2024-03-06T04:53:12;2.83;;;0.90;;
46717;SDS011;32448;44.960;-0.698;2024-03-06T04:55:39;3.72;;;1.05;;
46717;SDS011;32448;44.960;-0.698;2024-03-06T04:58:06;2.47;;;0.80;;
46717;SDS011;32448;44.960;-0.698;2024-03-06T05:00:32;2.53;;;0.95;;
46717;SDS011;32448;44.960;-0.698;2024-03-06T05:02:59;2.42;;;0.88;;
46717;SDS011;32448;44.960;-0.698;2024-03-06T05:05:44;2.83;;;1.00;;
46717;SDS011;32448;44.960;-0.698;2024-03-06T05:08:28;2.65;;;0.95;;
46717;SDS011;32448;44.960;-0.698;2024-03-06T05:11:13;4.03;;;0.77;;
46717;SDS011;32448;44.960;-0.698;2024-03-06T05:13:58;4.63;;;1.17;;
46717;SDS011;32448;44.960;-0.698;2024-03-06T05:16:43;1.48;;;0.90;;
46717;SDS011;32448;44.960;-0.698;2024-03-06T05:19:27;2.03;;;1.08;;
46717;SDS011;32448;44.960;-0.698;2024-03-06T05:22:15;2.17;;;1.25;;
46717;SDS011;32448;44.960;-0.698;2024-03-06T05:25:00;1.20;;;0.88;;
46717;SDS011;32448;44.960;-0.698;2024-03-06T05:27:44;4.60;;;1.00;;
46717;SDS011;32448;44.960;-0.698;2024-03-06T05:30:29;1.45;;;0.80;;
46717;SDS011;32448;44.960;-0.698;2024-03-06T05:33:14;1.85;;;1.00;;
46717;SDS011;32448;44.960;-0.698;2024-03-06T05:35:59;1.33;;;0.90;;
46717;SDS011;32448;44.960;-0.698;2024-03-06T05:38:44;3.08;;;1.00;;
46717;SDS011;32448;44.960;-0.698;2024-03-06T05:41:29;1.60;;;0.98;;
46717;SDS011;32448;44.960;-0.698;2024-03-06T05:44:14;2.33;;;0.80;;
46717;SDS011;32448;44.960;-0.698;2024-03-06T05:47:01;1.85;;;0.60;;
46717;SDS011;32448;44.960;-0.698;2024-03-06T05:49:47;1.52;;;0.80;;
46717;SDS011;32448;44.960;-0.698;2024-03-06T05:52:32;1.67;;;1.00;;
46717;SDS011;32448;44.960;-0.698;2024-03-06T05:55:17;1.45;;;1.08;;
46717;SDS011;32448;44.960;-0.698;2024-03-06T05:58:02;1.10;;;0.80;;
46717;SDS011;32448;44.960;-0.698;2024-03-06T06:03:33;1.95;;;1.00;;
46717;SDS011;32448;44.960;-0.698;2024-03-06T06:05:59;1.80;;;0.98;;
46717;SDS011;32448;44.960;-0.698;2024-03-06T06:08:26;3.63;;;1.20;;
46717;SDS011;32448;44.960;-0.698;2024-03-06T06:10:53;2.50;;;1.15;;
46717;SDS011;32448;44.960;-0.698;2024-03-06T06:13:21;3.45;;;1.17;;
46717;SDS011;32448;44.960;-0.698;2024-03-06T06:15:48;2.13;;;1.15;;
46717;SDS011;32448;44.960;-0.698;2024-03-06T06:18:15;3.65;;;1.92;;
46717;SDS011;32448;44.960;-0.698;2024-03-06T06:20:43;13.18;;;3.28;;
46717;SDS011;32448;44.960;-0.698;2024-03-06T06:23:10;35.78;;;7.40;;
46717;SDS011;32448;44.960;-0.698;2024-03-06T06:25:37;16.58;;;4.00;;
46717;SDS011;32448;44.960;-0.698;2024-03-06T06:28:03;10.30;;;2.88;;
46717;SDS011;32448;44.960;-0.698;2024-03-06T06:30:30;5.60;;;1.42;;
46717;SDS011;32448;44.960;-0.698;2024-03-06T06:32:59;2.28;;;1.50;;
46717;SDS011;32448;44.960;-0.698;2024-03-06T06:35:26;3.17;;;1.73;;
46717;SDS011;32448;44.960;-0.698;2024-03-06T06:37:53;29.55;;;10.48;;
46717;SDS011;32448;44.960;-0.698;2024-03-06T06:40:20;33.08;;;13.65;;
46717;SDS011;32448;44.960;-0.698;2024-03-06T06:42:48;24.55;;;9.80;;
46717;SDS011;32448;44.960;-0.698;2024-03-06T06:45:17;12.73;;;5.20;;
46717;SDS011;32448;44.960;-0.698;2024-03-06T06:47:45;6.32;;;2.80;;
46717;SDS011;32448;44.960;-0.698;2024-03-06T06:50:12;4.05;;;2.67;;
46717;SDS011;32448;44.960;-0.698;2024-03-06T06:52:39;4.18;;;2.33;;
46717;SDS011;32448;44.960;-0.698;2024-03-06T06:55:06;6.55;;;2.63;;
46717;SDS011;32448;44.960;-0.698;2024-03-06T06:57:33;4.70;;;2.05;;
46717;SDS011;32448;44.960;-0.698;2024-03-06T07:00:00;4.70;;;1.90;;
46717;SDS011;32448;44.960;-0.698;2024-03-06T07:02:37;6.05;;;2.17;;
46717;SDS011;32448;44.960;-0.698;2024-03-06T07:05:08;4.18;;;1.60;;
46717;SDS011;32448;44.960;-0.698;2024-03-06T07:07:36;4.63;;;1.65;;
46717;SDS011;32448;44.960;-0.698;2024-03-06T07:10:04;3.83;;;1.85;;
46717;SDS011;32448;44.960;-0.698;2024-03-06T07:12:33;5.25;;;1.80;;
46717;SDS011;32448;44.960;-0.698;2024-03-06T07:15:00;4.90;;;1.83;;
46717;SDS011;32448;44.960;-0.698;2024-03-06T07:17:27;4.88;;;2.30;;
46717;SDS011;32448;44.960;-0.698;2024-03-06T07:19:54;4.93;;;2.25;;
46717;SDS011;32448;44.960;-0.698;2024-03-06T07:22:22;5.47;;;2.17;;
46717;SDS011;32448;44.960;-0.698;2024-03-06T07:24:49;3.90;;;2.15;;
46717;SDS011;32448;44.960;-0.698;2024-03-06T07:27:16;5.18;;;2.53;;
46717;SDS011;32448;44.960;-0.698;2024-03-06T07:29:43;6.50;;;2.55;;
46717;SDS011;32448;44.960;-0.698;2024-03-06T07:32:11;5.68;;;3.05;;
46717;SDS011;32448;44.960;-0.698;2024-03-06T07:34:38;6.72;;;3.40;;
46717;SDS011;32448;44.960;-0.698;2024-03-06T07:37:07;7.75;;;3.35;;
46717;SDS011;32448;44.960;-0.698;2024-03-06T07:39:34;6.90;;;3.88;;
46717;SDS011;32448;44.960;-0.698;2024-03-06T07:42:19;10.27;;;4.30;;
46717;SDS011;32448;44.960;-0.698;2024-03-06T07:44:49;7.32;;;4.68;;
46717;SDS011;32448;44.960;-0.698;2024-03-06T07:47:20;7.45;;;4.60;;
46717;SDS011;32448;44.960;-0.698;2024-03-06T07:49:54;7.47;;;4.63;;
46717;SDS011;32448;44.960;-0.698;2024-03-06T07:52:25;7.30;;;4.38;;
46717;SDS011;32448;44.960;-0.698;2024-03-06T07:54:52;8.85;;;4.60;;
46717;SDS011;32448;44.960;-0.698;2024-03-06T07:57:19;10.45;;;4.88;;
46717;SDS011;32448;44.960;-0.698;2024-03-06T07:59:47;8.77;;;4.65;;
46717;SDS011;32448;44.960;-0.698;2024-03-06T08:02:15;7.88;;;4.10;;
46717;SDS011;32448;44.960;-0.698;2024-03-06T08:04:44;8.55;;;4.25;;
46717;SDS011;32448;44.960;-0.698;2024-03-06T08:07:11;7.57;;;3.78;;
46717;SDS011;32448;44.960;-0.698;2024-03-06T08:09:38;8.70;;;3.70;;
46717;SDS011;32448;44.960;-0.698;2024-03-06T08:12:05;6.43;;;3.38;;
46717;SDS011;32448;44.960;-0.698;2024-03-06T08:14:32;7.80;;;3.33;;
46717;SDS011;32448;44.960;-0.698;2024-03-06T08:16:59;7.07;;;3.00;;
46717;SDS011;32448;44.960;-0.698;2024-03-06T08:19:26;4.80;;;2.83;;
46717;SDS011;32448;44.960;-0.698;2024-03-06T08:21:53;11.10;;;3.33;;
46717;SDS011;32448;44.960;-0.698;2024-03-06T08:24:20;9.63;;;3.70;;
46717;SDS011;32448;44.960;-0.698;2024-03-06T08:26:47;9.35;;;3.20;;
46717;SDS011;32448;44.960;-0.698;2024-03-06T08:29:14;7.18;;;3.70;;
46717;SDS011;32448;44.960;-0.698;2024-03-06T08:31:41;5.65;;;3.20;;
46717;SDS011;32448;44.960;-0.698;2024-03-06T08:34:08;9.88;;;4.10;;
46717;SDS011;32448;44.960;-0.698;2024-03-06T08:36:38;10.27;;;4.32;;
46717;SDS011;32448;44.960;-0.698;2024-03-06T08:39:04;9.40;;;4.25;;
46717;SDS011;32448;44.960;-0.698;2024-03-06T08:41:34;11.35;;;4.50;;
46717;SDS011;32448;44.960;-0.698;2024-03-06T08:44:01;12.75;;;5.07;;
46717;SDS011;32448;44.960;-0.698;2024-03-06T08:46:29;12.32;;;4.60;;
46717;SDS011;32448;44.960;-0.698;2024-03-06T08:48:56;13.90;;;5.13;;
46717;SDS011;32448;44.960;-0.698;2024-03-06T08:51:26;12.85;;;5.13;;
46717;SDS011;32448;44.960;-0.698;2024-03-06T08:53:53;10.55;;;4.85;;
46717;SDS011;32448;44.960;-0.698;2024-03-06T08:56:20;16.80;;;5.82;;
46717;SDS011;32448;44.960;-0.698;2024-03-06T08:58:47;13.23;;;4.90;;
46717;SDS011;32448;44.960;-0.698;2024-03-06T09:01:13;13.85;;;5.20;;
46717;SDS011;32448;44.960;-0.698;2024-03-06T09:03:41;17.67;;;5.05;;
46717;SDS011;32448;44.960;-0.698;2024-03-06T09:06:08;15.65;;;5.03;;
46717;SDS011;32448;44.960;-0.698;2024-03-06T09:08:34;9.65;;;5.20;;
46717;SDS011;32448;44.960;-0.698;2024-03-06T09:11:01;11.15;;;4.93;;
46717;SDS011;32448;44.960;-0.698;2024-03-06T09:13:29;15.02;;;5.55;;
46717;SDS011;32448;44.960;-0.698;2024-03-06T09:15:56;24.75;;;6.32;;
46717;SDS011;32448;44.960;-0.698;2024-03-06T09:18:22;13.27;;;5.72;;
46717;SDS011;32448;44.960;-0.698;2024-03-06T09:20:49;21.23;;;6.78;;
46717;SDS011;32448;44.960;-0.698;2024-03-06T09:23:16;17.83;;;5.40;;
46717;SDS011;32448;44.960;-0.698;2024-03-06T09:25:43;15.50;;;5.38;;
46717;SDS011;32448;44.960;-0.698;2024-03-06T09:28:10;20.33;;;6.00;;
46717;SDS011;32448;44.960;-0.698;2024-03-06T09:30:36;24.38;;;6.40;;
46717;SDS011;32448;44.960;-0.698;2024-03-06T09:33:08;21.63;;;6.40;;
46717;SDS011;32448;44.960;-0.698;2024-03-06T09:35:35;22.38;;;5.82;;
46717;SDS011;32448;44.960;-0.698;2024-03-06T09:38:02;24.48;;;6.85;;
46717;SDS011;32448;44.960;-0.698;2024-03-06T09:40:29;23.70;;;7.18;;
46717;SDS011;32448;44.960;-0.698;2024-03-06T09:42:55;23.90;;;6.10;;
46717;SDS011;32448;44.960;-0.698;2024-03-06T09:45:23;17.60;;;5.65;;
46717;SDS011;32448;44.960;-0.698;2024-03-06T09:47:50;21.85;;;6.93;;
46717;SDS011;32448;44.960;-0.698;2024-03-06T09:50:21;23.40;;;6.15;;
46717;SDS011;32448;44.960;-0.698;2024-03-06T09:52:51;23.55;;;6.03;;
46717;SDS011;32448;44.960;-0.698;2024-03-06T09:55:20;21.50;;;6.40;;
46717;SDS011;32448;44.960;-0.698;2024-03-06T09:57:47;19.60;;;6.53;;
46717;SDS011;32448;44.960;-0.698;2024-03-06T10:00:15;22.05;;;5.82;;
46717;SDS011;32448;44.960;-0.698;2024-03-06T10:02:51;23.38;;;7.03;;
46717;SDS011;32448;44.960;-0.698;2024-03-06T10:05:27;22.10;;;6.57;;
46717;SDS011;32448;44.960;-0.698;2024-03-06T10:07:55;20.27;;;6.10;;
46717;SDS011;32448;44.960;-0.698;2024-03-06T10:10:22;19.08;;;5.40;;
46717;SDS011;32448;44.960;-0.698;2024-03-06T10:12:53;18.77;;;5.60;;
46717;SDS011;32448;44.960;-0.698;2024-03-06T10:15:20;19.15;;;5.85;;
46717;SDS011;32448;44.960;-0.698;2024-03-06T10:17:48;19.63;;;5.40;;
46717;SDS011;32448;44.960;-0.698;2024-03-06T10:20:22;16.83;;;5.57;;
46717;SDS011;32448;44.960;-0.698;2024-03-06T10:22:51;24.17;;;6.00;;
46717;SDS011;32448;44.960;-0.698;2024-03-06T10:25:24;23.58;;;7.03;;
46717;SDS011;32448;44.960;-0.698;2024-03-06T10:28:02;26.00;;;6.28;;
46717;SDS011;32448;44.960;-0.698;2024-03-06T10:30:37;16.13;;;5.50;;
46717;SDS011;32448;44.960;-0.698;2024-03-06T10:33:12;17.80;;;5.43;;
46717;SDS011;32448;44.960;-0.698;2024-03-06T10:35:41;17.55;;;4.40;;
46717;SDS011;32448;44.960;-0.698;2024-03-06T10:38:10;22.55;;;5.65;;
46717;SDS011;32448;44.960;-0.698;2024-03-06T10:40:38;17.77;;;4.88;;
46717;SDS011;32448;44.960;-0.698;2024-03-06T10:43:07;14.65;;;5.07;;
46717;SDS011;32448;44.960;-0.698;2024-03-06T10:48:10;17.60;;;6.00;;
46717;SDS011;32448;44.960;-0.698;2024-03-06T10:50:40;25.13;;;5.40;;
46717;SDS011;32448;44.960;-0.698;2024-03-06T10:53:11;22.80;;;4.63;;
46717;SDS011;32448;44.960;-0.698;2024-03-06T10:55:43;25.40;;;4.72;;
46717;SDS011;32448;44.960;-0.698;2024-03-06T10:58:13;21.58;;;5.60;;
46717;SDS011;32448;44.960;-0.698;2024-03-06T11:00:41;21.17;;;5.25;;
46717;SDS011;32448;44.960;-0.698;2024-03-06T11:03:12;22.77;;;5.30;;
46717;SDS011;32448;44.960;-0.698;2024-03-06T11:05:43;19.83;;;4.18;;
46717;SDS011;32448;44.960;-0.698;2024-03-06T11:08:15;22.02;;;4.88;;
46717;SDS011;32448;44.960;-0.698;2024-03-06T11:10:44;26.50;;;4.85;;
46717;SDS011;32448;44.960;-0.698;2024-03-06T11:15:41;20.02;;;4.40;;
46717;SDS011;32448;44.960;-0.698;2024-03-06T11:23:28;11.57;;;3.22;;
46717;SDS011;32448;44.960;-0.698;2024-03-06T11:31:02;17.45;;;4.38;;
46717;SDS011;32448;44.960;-0.698;2024-03-06T11:33:36;19.90;;;4.15;;
46717;SDS011;32448;44.960;-0.698;2024-03-06T11:36:13;15.52;;;4.50;;
46717;SDS011;32448;44.960;-0.698;2024-03-06T11:38:58;14.20;;;2.95;;
46717;SDS011;32448;44.960;-0.698;2024-03-06T11:41:27;18.63;;;4.60;;
46717;SDS011;32448;44.960;-0.698;2024-03-06T11:43:59;15.95;;;3.53;;
46717;SDS011;32448;44.960;-0.698;2024-03-06T11:49:17;13.90;;;3.05;;
46717;SDS011;32448;44.960;-0.698;2024-03-06T11:51:47;14.00;;;2.65;;
46717;SDS011;32448;44.960;-0.698;2024-03-06T11:54:15;11.75;;;3.30;;
46717;SDS011;32448;44.960;-0.698;2024-03-06T11:56:43;18.15;;;4.78;;
46717;SDS011;32448;44.960;-0.698;2024-03-06T11:59:14;14.00;;;2.65;;
46717;SDS011;32448;44.960;-0.698;2024-03-06T12:01:41;16.30;;;3.05;;
46717;SDS011;32448;44.960;-0.698;2024-03-06T12:04:08;8.13;;;2.53;;
46717;SDS011;32448;44.960;-0.698;2024-03-06T12:06:35;13.95;;;2.88;;
46717;SDS011;32448;44.960;-0.698;2024-03-06T12:09:03;11.77;;;3.10;;
46717;SDS011;32448;44.960;-0.698;2024-03-06T12:11:30;9.85;;;3.05;;
46717;SDS011;32448;44.960;-0.698;2024-03-06T12:13:57;15.00;;;2.60;;
46717;SDS011;32448;44.960;-0.698;2024-03-06T12:16:24;10.80;;;2.33;;
46717;SDS011;32448;44.960;-0.698;2024-03-06T12:18:58;9.23;;;2.40;;
46717;SDS011;32448;44.960;-0.698;2024-03-06T12:21:30;11.00;;;2.58;;
46717;SDS011;32448;44.960;-0.698;2024-03-06T12:24:01;12.38;;;2.83;;
46717;SDS011;32448;44.960;-0.698;2024-03-06T12:26:30;12.73;;;3.20;;
46717;SDS011;32448;44.960;-0.698;2024-03-06T12:29:07;16.70;;;3.53;;
46717;SDS011;32448;44.960;-0.698;2024-03-06T12:31:35;11.30;;;3.08;;
46717;SDS011;32448;44.960;-0.698;2024-03-06T12:34:04;17.63;;;2.83;;
46717;SDS011;32448;44.960;-0.698;2024-03-06T12:36:31;9.93;;;2.25;;
46717;SDS011;32448;44.960;-0.698;2024-03-06T12:39:00;13.82;;;2.38;;
46717;SDS011;32448;44.960;-0.698;2024-03-06T12:41:29;11.25;;;2.70;;
46717;SDS011;32448;44.960;-0.698;2024-03-06T12:43:59;15.38;;;2.78;;
46717;SDS011;32448;44.960;-0.698;2024-03-06T12:46:26;12.82;;;2.40;;
46717;SDS011;32448;44.960;-0.698;2024-03-06T12:48:53;10.55;;;1.90;;
46717;SDS011;32448;44.960;-0.698;2024-03-06T12:51:20;9.40;;;1.80;;
46717;SDS011;32448;44.960;-0.698;2024-03-06T12:53:48;11.63;;;1.70;;
46717;SDS011;32448;44.960;-0.698;2024-03-06T12:56:18;10.82;;;1.50;;
46717;SDS011;32448;44.960;-0.698;2024-03-06T12:58:45;5.32;;;1.38;;
46717;SDS011;32448;44.960;-0.698;2024-03-06T13:01:15;10.38;;;1.80;;
46717;SDS011;32448;44.960;-0.698;2024-03-06T13:03:42;8.77;;;1.42;;
46717;SDS011;32448;44.960;-0.698;2024-03-06T13:06:08;7.90;;;1.30;;
46717;SDS011;32448;44.960;-0.698;2024-03-06T13:08:36;5.72;;;1.77;;
46717;SDS011;32448;44.960;-0.698;2024-03-06T13:11:05;4.82;;;1.10;;
46717;SDS011;32448;44.960;-0.698;2024-03-06T13:13:32;8.02;;;1.80;;
46717;SDS011;32448;44.960;-0.698;2024-03-06T13:16:00;8.90;;;1.83;;
46717;SDS011;32448;44.960;-0.698;2024-03-06T13:18:32;12.10;;;2.05;;
46717;SDS011;32448;44.960;-0.698;2024-03-06T13:20:59;7.38;;;1.63;;
46717;SDS011;32448;44.960;-0.698;2024-03-06T13:23:27;10.60;;;2.22;;
46717;SDS011;32448;44.960;-0.698;2024-03-06T13:25:54;10.65;;;1.90;;
46717;SDS011;32448;44.960;-0.698;2024-03-06T13:28:21;10.07;;;2.03;;
46717;SDS011;32448;44.960;-0.698;2024-03-06T13:30:47;14.27;;;2.47;;
46717;SDS011;32448;44.960;-0.698;2024-03-06T13:33:14;11.10;;;2.53;;
46717;SDS011;32448;44.960;-0.698;2024-03-06T13:35:42;9.73;;;2.33;;
46717;SDS011;32448;44.960;-0.698;2024-03-06T13:38:09;11.98;;;2.20;;
46717;SDS011;32448;44.960;-0.698;2024-03-06T13:40:36;14.43;;;2.47;;
46717;SDS011;32448;44.960;-0.698;2024-03-06T13:43:02;16.98;;;2.75;;
46717;SDS011;32448;44.960;-0.698;2024-03-06T13:45:29;10.35;;;2.15;;
46717;SDS011;32448;44.960;-0.698;2024-03-06T13:47:56;18.00;;;2.53;;
46717;SDS011;32448;44.960;-0.698;2024-03-06T13:50:23;10.63;;;2.65;;
46717;SDS011;32448;44.960;-0.698;2024-03-06T13:52:52;18.27;;;3.30;;
46717;SDS011;32448;44.960;-0.698;2024-03-06T13:55:19;11.82;;;2.28;;
46717;SDS011;32448;44.960;-0.698;2024-03-06T13:57:46;9.85;;;1.88;;
46717;SDS011;32448;44.960;-0.698;2024-03-06T14:00:13;13.23;;;2.42;;
46717;SDS011;32448;44.960;-0.698;2024-03-06T14:02:44;8.25;;;2.15;;
46717;SDS011;32448;44.960;-0.698;2024-03-06T14:05:12;12.35;;;2.65;;
46717;SDS011;32448;44.960;-0.698;2024-03-06T14:07:41;11.48;;;2.35;;
46717;SDS011;32448;44.960;-0.698;2024-03-06T14:10:08;13.98;;;2.75;;
46717;SDS011;32448;44.960;-0.698;2024-03-06T14:12:35;10.70;;;2.63;;
46717;SDS011;32448;44.960;-0.698;2024-03-06T14:15:02;10.75;;;2.35;;
46717;SDS011;32448;44.960;-0.698;2024-03-06T14:17:30;9.93;;;2.05;;
46717;SDS011;32448;44.960;-0.698;2024-03-06T14:19:57;12.75;;;2.33;;
46717;SDS011;32448;44.960;-0.698;2024-03-06T14:22:24;13.68;;;2.40;;
46717;SDS011;32448;44.960;-0.698;2024-03-06T14:24:50;14.95;;;2.60;;
46717;SDS011;32448;44.960;-0.698;2024-03-06T14:27:17;14.38;;;2.65;;
46717;SDS011;32448;44.960;-0.698;2024-03-06T14:29:44;12.43;;;1.70;;
46717;SDS011;32448;44.960;-0.698;2024-03-06T14:32:11;10.57;;;2.10;;
46717;SDS011;32448;44.960;-0.698;2024-03-06T14:34:38;14.05;;;3.00;;
46717;SDS011;32448;44.960;-0.698;2024-03-06T14:37:05;14.00;;;2.55;;
46717;SDS011;32448;44.960;-0.698;2024-03-06T14:39:32;12.65;;;2.20;;
46717;SDS011;32448;44.960;-0.698;2024-03-06T14:41:59;15.25;;;2.47;;
46717;SDS011;32448;44.960;-0.698;2024-03-06T14:44:26;15.77;;;2.13;;
46717;SDS011;32448;44.960;-0.698;2024-03-06T14:46:53;11.52;;;2.15;;
46717;SDS011;32448;44.960;-0.698;2024-03-06T14:49:19;8.70;;;1.85;;
46717;SDS011;32448;44.960;-0.698;2024-03-06T14:51:46;10.50;;;2.17;;
46717;SDS011;32448;44.960;-0.698;2024-03-06T14:54:13;5.82;;;1.38;;
46717;SDS011;32448;44.960;-0.698;2024-03-06T14:56:40;14.20;;;2.30;;
46717;SDS011;32448;44.960;-0.698;2024-03-06T14:59:08;16.63;;;3.05;;